sensor_id;sensor_type;location;lat;lon;timestamp;temperature;humidity
60860;DHT22;46694;54.382;9.708;2022-07-05T00:01:50;15.60;99.40
60860;DHT22;46694;54.382;9.708;2022-07-05T00:04:30;15.60;99.40
60860;DHT22;46694;54.382;9.708;2022-07-05T00:07:10;15.60;99.80
60860;DHT22;46694;54.382;9.708;2022-07-05T00:09:58;15.50;99.50
60860;DHT22;46694;54.382;9.708;2022-07-05T00:12:38;15.50;99.50
60860;DHT22;46694;54.382;9.708;2022-07-05T00:15:17;15.50;99.50
60860;DHT22;46694;54.382;9.708;2022-07-05T00:17:58;15.50;99.50
60860;DHT22;46694;54.382;9.708;2022-07-05T00:20:37;15.50;99.40
60860;DHT22;46694;54.382;9.708;2022-07-05T00:23:17;15.50;99.50
60860;DHT22;46694;54.382;9.708;2022-07-05T00:25:56;15.50;99.40
60860;DHT22;46694;54.382;9.708;2022-07-05T00:28:36;15.50;99.40
60860;DHT22;46694;54.382;9.708;2022-07-05T00:31:16;15.50;99.40
60860;DHT22;46694;54.382;9.708;2022-07-05T00:33:56;15.50;99.50
60860;DHT22;46694;54.382;9.708;2022-07-05T00:36:35;15.40;99.50
60860;DHT22;46694;54.382;9.708;2022-07-05T00:39:15;15.40;99.70
60860;DHT22;46694;54.382;9.708;2022-07-05T00:41:55;15.40;99.70
60860;DHT22;46694;54.382;9.708;2022-07-05T00:44:37;15.40;99.70
60860;DHT22;46694;54.382;9.708;2022-07-05T00:47:18;15.30;99.70
60860;DHT22;46694;54.382;9.708;2022-07-05T00:49:58;15.30;99.80
60860;DHT22;46694;54.382;9.708;2022-07-05T00:52:37;15.30;99.80
60860;DHT22;46694;54.382;9.708;2022-07-05T00:55:17;15.20;99.80
60860;DHT22;46694;54.382;9.708;2022-07-05T00:57:57;15.20;99.90
60860;DHT22;46694;54.382;9.708;2022-07-05T01:00:37;15.20;99.90
60860;DHT22;46694;54.382;9.708;2022-07-05T01:03:17;15.20;99.90
60860;DHT22;46694;54.382;9.708;2022-07-05T01:05:56;15.20;99.90
60860;DHT22;46694;54.382;9.708;2022-07-05T01:08:39;15.10;99.90
60860;DHT22;46694;54.382;9.708;2022-07-05T01:11:20;15.10;99.90
60860;DHT22;46694;54.382;9.708;2022-07-05T01:13:59;15.00;99.90
60860;DHT22;46694;54.382;9.708;2022-07-05T01:16:40;15.00;99.90
60860;DHT22;46694;54.382;9.708;2022-07-05T01:19:21;14.90;99.90
60860;DHT22;46694;54.382;9.708;2022-07-05T01:22:03;14.90;99.90
60860;DHT22;46694;54.382;9.708;2022-07-05T01:24:44;14.90;99.90
60860;DHT22;46694;54.382;9.708;2022-07-05T01:27:25;14.90;99.90
60860;DHT22;46694;54.382;9.708;2022-07-05T01:30:06;14.90;99.90
60860;DHT22;46694;54.382;9.708;2022-07-05T01:32:46;14.90;99.90
60860;DHT22;46694;54.382;9.708;2022-07-05T01:35:26;14.90;99.90
60860;DHT22;46694;54.382;9.708;2022-07-05T01:38:05;15.00;99.90
60860;DHT22;46694;54.382;9.708;2022-07-05T01:40:45;14.90;99.90
60860;DHT22;46694;54.382;9.708;2022-07-05T01:43:24;15.00;99.90
60860;DHT22;46694;54.382;9.708;2022-07-05T01:46:05;14.90;99.90
60860;DHT22;46694;54.382;9.708;2022-07-05T01:48:45;14.90;99.90
60860;DHT22;46694;54.382;9.708;2022-07-05T01:51:30;14.90;99.90
60860;DHT22;46694;54.382;9.708;2022-07-05T01:54:13;15.00;99.90
60860;DHT22;46694;54.382;9.708;2022-07-05T01:56:52;15.00;99.90
60860;DHT22;46694;54.382;9.708;2022-07-05T01:59:33;15.00;99.90
60860;DHT22;46694;54.382;9.708;2022-07-05T02:02:13;15.10;99.90
60860;DHT22;46694;54.382;9.708;2022-07-05T02:04:53;15.10;99.90
60860;DHT22;46694;54.382;9.708;2022-07-05T02:07:33;15.10;99.90
60860;DHT22;46694;54.382;9.708;2022-07-05T02:10:12;15.20;99.90
60860;DHT22;46694;54.382;9.708;2022-07-05T02:12:52;15.20;99.90
60860;DHT22;46694;54.382;9.708;2022-07-05T02:15:32;15.20;99.90
60860;DHT22;46694;54.382;9.708;2022-07-05T02:18:21;15.10;99.90
60860;DHT22;46694;54.382;9.708;2022-07-05T02:21:01;15.20;99.90
60860;DHT22;46694;54.382;9.708;2022-07-05T02:23:40;15.20;99.90
60860;DHT22;46694;54.382;9.708;2022-07-05T02:26:20;15.20;99.90
60860;DHT22;46694;54.382;9.708;2022-07-05T02:29:01;15.20;99.90
60860;DHT22;46694;54.382;9.708;2022-07-05T02:31:42;15.20;99.90
60860;DHT22;46694;54.382;9.708;2022-07-05T02:34:22;15.30;99.90
60860;DHT22;46694;54.382;9.708;2022-07-05T02:37:01;15.30;99.90
60860;DHT22;46694;54.382;9.708;2022-07-05T02:39:41;15.20;99.90
60860;DHT22;46694;54.382;9.708;2022-07-05T02:42:20;15.20;99.90
60860;DHT22;46694;54.382;9.708;2022-07-05T02:45:00;15.20;99.90
60860;DHT22;46694;54.382;9.708;2022-07-05T02:47:40;15.20;99.90
60860;DHT22;46694;54.382;9.708;2022-07-05T02:50:19;15.30;99.90
60860;DHT22;46694;54.382;9.708;2022-07-05T02:52:59;15.30;99.90
60860;DHT22;46694;54.382;9.708;2022-07-05T02:55:39;15.30;99.90
60860;DHT22;46694;54.382;9.708;2022-07-05T02:58:18;15.40;99.90
60860;DHT22;46694;54.382;9.708;2022-07-05T03:00:58;15.30;99.90
60860;DHT22;46694;54.382;9.708;2022-07-05T03:03:38;15.40;99.90
60860;DHT22;46694;54.382;9.708;2022-07-05T03:06:17;15.40;99.90
60860;DHT22;46694;54.382;9.708;2022-07-05T03:08:57;15.40;99.90
60860;DHT22;46694;54.382;9.708;2022-07-05T03:11:37;15.40;99.90
60860;DHT22;46694;54.382;9.708;2022-07-05T03:14:16;15.30;99.90
60860;DHT22;46694;54.382;9.708;2022-07-05T03:16:56;15.30;99.90
60860;DHT22;46694;54.382;9.708;2022-07-05T03:19:36;15.20;99.90
60860;DHT22;46694;54.382;9.708;2022-07-05T03:22:16;15.20;99.90
60860;DHT22;46694;54.382;9.708;2022-07-05T03:24:56;15.20;99.90
60860;DHT22;46694;54.382;9.708;2022-07-05T03:27:36;15.20;99.90
60860;DHT22;46694;54.382;9.708;2022-07-05T03:30:15;15.20;99.90
60860;DHT22;46694;54.382;9.708;2022-07-05T03:32:55;15.30;99.90
60860;DHT22;46694;54.382;9.708;2022-07-05T03:35:35;15.30;99.90
60860;DHT22;46694;54.382;9.708;2022-07-05T03:38:14;15.30;99.90
60860;DHT22;46694;54.382;9.708;2022-07-05T03:40:54;15.30;99.90
60860;DHT22;46694;54.382;9.708;2022-07-05T03:43:33;15.20;99.90
60860;DHT22;46694;54.382;9.708;2022-07-05T03:46:13;15.20;99.90
60860;DHT22;46694;54.382;9.708;2022-07-05T03:48:52;15.20;99.90
60860;DHT22;46694;54.382;9.708;2022-07-05T03:51:32;15.20;99.90
60860;DHT22;46694;54.382;9.708;2022-07-05T03:54:11;15.20;99.90
60860;DHT22;46694;54.382;9.708;2022-07-05T03:56:51;15.20;99.90
60860;DHT22;46694;54.382;9.708;2022-07-05T03:59:31;15.20;99.90
60860;DHT22;46694;54.382;9.708;2022-07-05T04:02:11;15.20;99.90
60860;DHT22;46694;54.382;9.708;2022-07-05T04:04:51;15.20;99.90
60860;DHT22;46694;54.382;9.708;2022-07-05T04:07:31;15.20;99.90
60860;DHT22;46694;54.382;9.708;2022-07-05T04:10:11;15.30;99.90
60860;DHT22;46694;54.382;9.708;2022-07-05T04:12:51;15.30;99.90
60860;DHT22;46694;54.382;9.708;2022-07-05T04:15:31;15.40;99.90
60860;DHT22;46694;54.382;9.708;2022-07-05T04:18:10;15.50;99.90
60860;DHT22;46694;54.382;9.708;2022-07-05T04:20:50;15.50;99.90
60860;DHT22;46694;54.382;9.708;2022-07-05T04:23:30;15.60;99.90
60860;DHT22;46694;54.382;9.708;2022-07-05T04:26:09;15.90;99.90
60860;DHT22;46694;54.382;9.708;2022-07-05T04:28:49;16.20;99.90
60860;DHT22;46694;54.382;9.708;2022-07-05T04:31:29;16.50;99.90
60860;DHT22;46694;54.382;9.708;2022-07-05T04:34:08;16.80;99.80
60860;DHT22;46694;54.382;9.708;2022-07-05T04:36:48;16.90;99.30
60860;DHT22;46694;54.382;9.708;2022-07-05T04:39:28;16.90;98.90
60860;DHT22;46694;54.382;9.708;2022-07-05T04:42:07;17.00;98.90
60860;DHT22;46694;54.382;9.708;2022-07-05T04:44:47;17.10;98.80
60860;DHT22;46694;54.382;9.708;2022-07-05T04:47:28;17.20;98.70
60860;DHT22;46694;54.382;9.708;2022-07-05T04:50:08;17.40;98.60
60860;DHT22;46694;54.382;9.708;2022-07-05T04:52:48;17.60;98.40
60860;DHT22;46694;54.382;9.708;2022-07-05T04:55:28;17.80;98.10
60860;DHT22;46694;54.382;9.708;2022-07-05T04:58:07;18.00;97.70
60860;DHT22;46694;54.382;9.708;2022-07-05T05:00:47;18.20;97.50
60860;DHT22;46694;54.382;9.708;2022-07-05T05:03:26;18.50;97.20
60860;DHT22;46694;54.382;9.708;2022-07-05T05:06:06;18.70;96.70
60860;DHT22;46694;54.382;9.708;2022-07-05T05:08:45;18.90;96.20
60860;DHT22;46694;54.382;9.708;2022-07-05T05:11:25;19.10;95.60
60860;DHT22;46694;54.382;9.708;2022-07-05T05:14:05;19.30;95.40
60860;DHT22;46694;54.382;9.708;2022-07-05T05:16:44;19.60;95.00
60860;DHT22;46694;54.382;9.708;2022-07-05T05:19:24;19.80;94.60
60860;DHT22;46694;54.382;9.708;2022-07-05T05:22:04;20.00;94.00
60860;DHT22;46694;54.382;9.708;2022-07-05T05:24:43;20.10;93.70
60860;DHT22;46694;54.382;9.708;2022-07-05T05:27:23;20.30;93.30
60860;DHT22;46694;54.382;9.708;2022-07-05T05:30:03;20.40;93.00
60860;DHT22;46694;54.382;9.708;2022-07-05T05:32:43;20.50;92.90
60860;DHT22;46694;54.382;9.708;2022-07-05T05:35:22;20.80;92.50
60860;DHT22;46694;54.382;9.708;2022-07-05T05:38:02;21.00;92.20
60860;DHT22;46694;54.382;9.708;2022-07-05T05:40:42;21.20;91.80
60860;DHT22;46694;54.382;9.708;2022-07-05T05:43:23;21.30;91.50
60860;DHT22;46694;54.382;9.708;2022-07-05T05:46:03;21.60;91.00
60860;DHT22;46694;54.382;9.708;2022-07-05T05:48:43;21.70;91.00
60860;DHT22;46694;54.382;9.708;2022-07-05T05:51:22;21.90;90.10
60860;DHT22;46694;54.382;9.708;2022-07-05T05:57:34;22.30;89.40
60860;DHT22;46694;54.382;9.708;2022-07-05T06:00:16;22.60;88.00
60860;DHT22;46694;54.382;9.708;2022-07-05T06:02:56;22.50;87.40
60860;DHT22;46694;54.382;9.708;2022-07-05T06:05:36;22.60;87.40
60860;DHT22;46694;54.382;9.708;2022-07-05T06:08:16;22.80;87.00
60860;DHT22;46694;54.382;9.708;2022-07-05T06:10:56;22.90;86.40
60860;DHT22;46694;54.382;9.708;2022-07-05T06:13:36;23.00;86.00
60860;DHT22;46694;54.382;9.708;2022-07-05T06:16:16;23.20;85.00
60860;DHT22;46694;54.382;9.708;2022-07-05T06:18:55;23.20;84.90
60860;DHT22;46694;54.382;9.708;2022-07-05T06:21:44;23.40;84.60
60860;DHT22;46694;54.382;9.708;2022-07-05T06:24:24;23.60;84.20
60860;DHT22;46694;54.382;9.708;2022-07-05T06:27:04;23.60;82.60
60860;DHT22;46694;54.382;9.708;2022-07-05T06:29:47;23.50;82.40
60860;DHT22;46694;54.382;9.708;2022-07-05T06:32:26;23.50;83.00
60860;DHT22;46694;54.382;9.708;2022-07-05T06:35:06;23.80;82.20
60860;DHT22;46694;54.382;9.708;2022-07-05T06:37:52;23.80;81.10
60860;DHT22;46694;54.382;9.708;2022-07-05T06:40:34;23.80;80.90
60860;DHT22;46694;54.382;9.708;2022-07-05T06:43:15;23.80;80.40
60860;DHT22;46694;54.382;9.708;2022-07-05T06:45:55;23.80;79.00
60860;DHT22;46694;54.382;9.708;2022-07-05T06:48:35;24.10;79.60
60860;DHT22;46694;54.382;9.708;2022-07-05T06:51:15;24.60;78.10
60860;DHT22;46694;54.382;9.708;2022-07-05T06:53:55;24.50;77.10
60860;DHT22;46694;54.382;9.708;2022-07-05T06:56:34;24.30;77.60
60860;DHT22;46694;54.382;9.708;2022-07-05T06:59:14;24.00;78.00
60860;DHT22;46694;54.382;9.708;2022-07-05T07:01:54;23.70;78.30
60860;DHT22;46694;54.382;9.708;2022-07-05T07:04:33;23.20;79.00
60860;DHT22;46694;54.382;9.708;2022-07-05T07:07:13;22.90;79.60
60860;DHT22;46694;54.382;9.708;2022-07-05T07:10:12;22.60;80.20
60860;DHT22;46694;54.382;9.708;2022-07-05T07:12:51;22.50;80.70
60860;DHT22;46694;54.382;9.708;2022-07-05T07:15:31;22.50;80.80
60860;DHT22;46694;54.382;9.708;2022-07-05T07:18:12;22.60;80.60
60860;DHT22;46694;54.382;9.708;2022-07-05T07:20:52;22.70;80.70
60860;DHT22;46694;54.382;9.708;2022-07-05T07:23:31;23.00;81.00
60860;DHT22;46694;54.382;9.708;2022-07-05T07:26:11;23.60;79.90
60860;DHT22;46694;54.382;9.708;2022-07-05T07:28:52;24.10;76.10
60860;DHT22;46694;54.382;9.708;2022-07-05T07:31:32;23.80;71.60
60860;DHT22;46694;54.382;9.708;2022-07-05T07:34:11;23.10;70.70
60860;DHT22;46694;54.382;9.708;2022-07-05T07:36:52;22.60;71.70
60860;DHT22;46694;54.382;9.708;2022-07-05T07:39:32;22.60;73.20
60860;DHT22;46694;54.382;9.708;2022-07-05T07:42:11;23.00;73.50
60860;DHT22;46694;54.382;9.708;2022-07-05T07:44:51;23.40;72.30
60860;DHT22;46694;54.382;9.708;2022-07-05T07:47:35;23.30;70.80
60860;DHT22;46694;54.382;9.708;2022-07-05T07:50:15;23.00;70.30
60860;DHT22;46694;54.382;9.708;2022-07-05T07:52:54;22.40;70.90
60860;DHT22;46694;54.382;9.708;2022-07-05T07:55:34;21.90;73.00
60860;DHT22;46694;54.382;9.708;2022-07-05T07:58:14;21.30;76.50
60860;DHT22;46694;54.382;9.708;2022-07-05T08:00:53;20.90;79.30
60860;DHT22;46694;54.382;9.708;2022-07-05T08:03:33;20.60;81.60
60860;DHT22;46694;54.382;9.708;2022-07-05T08:06:12;20.40;83.30
60860;DHT22;46694;54.382;9.708;2022-07-05T08:08:53;20.30;84.60
60860;DHT22;46694;54.382;9.708;2022-07-05T08:11:32;20.30;85.40
60860;DHT22;46694;54.382;9.708;2022-07-05T08:14:13;20.40;85.80
60860;DHT22;46694;54.382;9.708;2022-07-05T08:16:55;20.50;85.70
60860;DHT22;46694;54.382;9.708;2022-07-05T08:19:36;20.70;85.10
60860;DHT22;46694;54.382;9.708;2022-07-05T08:22:34;20.70;84.80
60860;DHT22;46694;54.382;9.708;2022-07-05T08:25:14;20.70;84.90
60860;DHT22;46694;54.382;9.708;2022-07-05T08:27:56;20.70;85.20
60860;DHT22;46694;54.382;9.708;2022-07-05T08:30:35;20.70;85.30
60860;DHT22;46694;54.382;9.708;2022-07-05T08:33:15;20.80;84.90
60860;DHT22;46694;54.382;9.708;2022-07-05T08:35:54;20.90;84.20
60860;DHT22;46694;54.382;9.708;2022-07-05T08:38:34;20.90;84.10
60860;DHT22;46694;54.382;9.708;2022-07-05T08:41:17;21.00;84.30
60860;DHT22;46694;54.382;9.708;2022-07-05T08:44:00;21.10;83.90
60860;DHT22;46694;54.382;9.708;2022-07-05T08:46:42;21.10;83.60
60860;DHT22;46694;54.382;9.708;2022-07-05T08:49:27;21.40;83.50
60860;DHT22;46694;54.382;9.708;2022-07-05T08:52:10;21.70;82.70
60860;DHT22;46694;54.382;9.708;2022-07-05T08:54:52;22.00;82.10
60860;DHT22;46694;54.382;9.708;2022-07-05T08:57:32;22.20;82.20
60860;DHT22;46694;54.382;9.708;2022-07-05T09:00:12;22.20;81.60
60860;DHT22;46694;54.382;9.708;2022-07-05T09:02:52;22.00;81.30
60860;DHT22;46694;54.382;9.708;2022-07-05T09:05:45;21.80;82.00
60860;DHT22;46694;54.382;9.708;2022-07-05T09:08:25;21.60;82.50
60860;DHT22;46694;54.382;9.708;2022-07-05T09:11:08;21.40;83.20
60860;DHT22;46694;54.382;9.708;2022-07-05T09:13:50;21.40;82.60
60860;DHT22;46694;54.382;9.708;2022-07-05T09:16:30;21.40;82.50
60860;DHT22;46694;54.382;9.708;2022-07-05T09:19:11;21.60;81.50
60860;DHT22;46694;54.382;9.708;2022-07-05T09:22:06;21.80;80.00
60860;DHT22;46694;54.382;9.708;2022-07-05T09:24:47;21.90;78.70
60860;DHT22;46694;54.382;9.708;2022-07-05T09:27:26;22.20;77.80
60860;DHT22;46694;54.382;9.708;2022-07-05T09:30:07;22.20;76.80
60860;DHT22;46694;54.382;9.708;2022-07-05T09:32:47;22.20;76.80
60860;DHT22;46694;54.382;9.708;2022-07-05T09:35:27;22.10;76.50
60860;DHT22;46694;54.382;9.708;2022-07-05T09:38:19;22.00;77.40
60860;DHT22;46694;54.382;9.708;2022-07-05T09:40:59;22.00;77.70
60860;DHT22;46694;54.382;9.708;2022-07-05T09:43:41;22.10;77.50
60860;DHT22;46694;54.382;9.708;2022-07-05T09:46:29;22.10;77.80
60860;DHT22;46694;54.382;9.708;2022-07-05T09:49:25;22.50;76.90
60860;DHT22;46694;54.382;9.708;2022-07-05T09:52:05;22.70;76.30
60860;DHT22;46694;54.382;9.708;2022-07-05T09:55:03;22.70;74.70
60860;DHT22;46694;54.382;9.708;2022-07-05T09:57:47;22.60;74.60
60860;DHT22;46694;54.382;9.708;2022-07-05T10:00:27;22.30;74.50
60860;DHT22;46694;54.382;9.708;2022-07-05T10:03:06;22.10;75.20
60860;DHT22;46694;54.382;9.708;2022-07-05T10:05:46;21.80;75.50
60860;DHT22;46694;54.382;9.708;2022-07-05T10:08:27;21.60;76.10
60860;DHT22;46694;54.382;9.708;2022-07-05T10:11:07;21.40;76.80
60860;DHT22;46694;54.382;9.708;2022-07-05T10:13:51;21.50;77.40
60860;DHT22;46694;54.382;9.708;2022-07-05T10:16:31;21.60;77.20
60860;DHT22;46694;54.382;9.708;2022-07-05T10:19:15;21.80;77.50
60860;DHT22;46694;54.382;9.708;2022-07-05T10:21:59;21.90;77.80
60860;DHT22;46694;54.382;9.708;2022-07-05T10:24:40;22.00;77.20
60860;DHT22;46694;54.382;9.708;2022-07-05T10:27:20;21.90;77.50
60860;DHT22;46694;54.382;9.708;2022-07-05T10:30:01;22.10;78.70
60860;DHT22;46694;54.382;9.708;2022-07-05T10:32:42;22.70;78.40
60860;DHT22;46694;54.382;9.708;2022-07-05T10:35:22;23.20;77.00
60860;DHT22;46694;54.382;9.708;2022-07-05T10:38:03;23.50;76.60
60860;DHT22;46694;54.382;9.708;2022-07-05T10:40:47;23.70;76.50
60860;DHT22;46694;54.382;9.708;2022-07-05T10:43:30;23.80;76.10
60860;DHT22;46694;54.382;9.708;2022-07-05T10:46:10;24.10;75.30
60860;DHT22;46694;54.382;9.708;2022-07-05T10:49:09;24.20;74.50
60860;DHT22;46694;54.382;9.708;2022-07-05T10:51:50;24.20;73.90
60860;DHT22;46694;54.382;9.708;2022-07-05T10:54:30;24.10;73.80
60860;DHT22;46694;54.382;9.708;2022-07-05T10:57:29;23.80;74.00
60860;DHT22;46694;54.382;9.708;2022-07-05T11:00:11;23.40;74.30
60860;DHT22;46694;54.382;9.708;2022-07-05T11:03:06;23.10;75.50
60860;DHT22;46694;54.382;9.708;2022-07-05T11:05:47;22.90;75.40
60860;DHT22;46694;54.382;9.708;2022-07-05T11:08:27;22.80;75.70
60860;DHT22;46694;54.382;9.708;2022-07-05T11:11:11;22.70;76.00
60860;DHT22;46694;54.382;9.708;2022-07-05T11:13:52;22.60;75.00
60860;DHT22;46694;54.382;9.708;2022-07-05T11:16:35;22.50;75.10
60860;DHT22;46694;54.382;9.708;2022-07-05T11:19:17;22.40;74.90
60860;DHT22;46694;54.382;9.708;2022-07-05T11:24:47;22.30;75.40
60860;DHT22;46694;54.382;9.708;2022-07-05T11:27:27;22.40;74.90
60860;DHT22;46694;54.382;9.708;2022-07-05T11:30:21;22.50;74.80
60860;DHT22;46694;54.382;9.708;2022-07-05T11:33:28;22.50;74.30
60860;DHT22;46694;54.382;9.708;2022-07-05T11:36:22;22.50;73.50
60860;DHT22;46694;54.382;9.708;2022-07-05T11:39:13;22.40;73.00
60860;DHT22;46694;54.382;9.708;2022-07-05T11:41:59;22.40;73.50
60860;DHT22;46694;54.382;9.708;2022-07-05T11:44:39;22.50;73.20
60860;DHT22;46694;54.382;9.708;2022-07-05T11:47:19;22.60;72.80
60860;DHT22;46694;54.382;9.708;2022-07-05T11:49:59;22.70;72.90
60860;DHT22;46694;54.382;9.708;2022-07-05T11:52:39;22.70;72.80
60860;DHT22;46694;54.382;9.708;2022-07-05T11:55:19;22.40;73.70
60860;DHT22;46694;54.382;9.708;2022-07-05T11:57:59;22.10;73.80
60860;DHT22;46694;54.382;9.708;2022-07-05T12:00:38;21.90;73.80
60860;DHT22;46694;54.382;9.708;2022-07-05T12:03:19;21.70;74.20
60860;DHT22;46694;54.382;9.708;2022-07-05T12:05:59;21.70;73.70
60860;DHT22;46694;54.382;9.708;2022-07-05T12:09:04;21.60;73.70
60860;DHT22;46694;54.382;9.708;2022-07-05T12:11:50;21.70;74.20
60860;DHT22;46694;54.382;9.708;2022-07-05T12:14:52;21.90;74.30
60860;DHT22;46694;54.382;9.708;2022-07-05T12:17:34;22.00;74.10
60860;DHT22;46694;54.382;9.708;2022-07-05T12:20:21;21.90;74.20
60860;DHT22;46694;54.382;9.708;2022-07-05T12:23:02;21.90;74.60
60860;DHT22;46694;54.382;9.708;2022-07-05T12:25:41;22.10;74.60
60860;DHT22;46694;54.382;9.708;2022-07-05T12:28:21;22.60;74.50
60860;DHT22;46694;54.382;9.708;2022-07-05T12:31:13;23.10;74.60
60860;DHT22;46694;54.382;9.708;2022-07-05T12:33:53;23.60;73.90
60860;DHT22;46694;54.382;9.708;2022-07-05T12:37:01;23.60;72.50
60860;DHT22;46694;54.382;9.708;2022-07-05T12:39:40;23.50;73.90
60860;DHT22;46694;54.382;9.708;2022-07-05T12:42:34;23.40;74.50
60860;DHT22;46694;54.382;9.708;2022-07-05T12:45:17;23.30;72.60
60860;DHT22;46694;54.382;9.708;2022-07-05T12:47:58;23.20;71.50
60860;DHT22;46694;54.382;9.708;2022-07-05T12:50:47;23.20;70.70
60860;DHT22;46694;54.382;9.708;2022-07-05T12:53:28;23.20;69.60
60860;DHT22;46694;54.382;9.708;2022-07-05T12:56:28;23.30;69.40
60860;DHT22;46694;54.382;9.708;2022-07-05T12:59:26;23.70;69.40
60860;DHT22;46694;54.382;9.708;2022-07-05T13:02:06;23.90;68.20
60860;DHT22;46694;54.382;9.708;2022-07-05T13:04:54;23.80;67.10
60860;DHT22;46694;54.382;9.708;2022-07-05T13:07:44;23.80;68.10
60860;DHT22;46694;54.382;9.708;2022-07-05T13:10:25;23.90;68.00
60860;DHT22;46694;54.382;9.708;2022-07-05T13:13:07;23.80;67.20
60860;DHT22;46694;54.382;9.708;2022-07-05T13:15:47;23.60;68.10
60860;DHT22;46694;54.382;9.708;2022-07-05T13:18:26;23.50;68.80
60860;DHT22;46694;54.382;9.708;2022-07-05T13:21:06;23.50;68.90
60860;DHT22;46694;54.382;9.708;2022-07-05T13:23:45;23.60;69.30
60860;DHT22;46694;54.382;9.708;2022-07-05T13:26:25;23.60;70.00
60860;DHT22;46694;54.382;9.708;2022-07-05T13:29:04;23.80;69.60
60860;DHT22;46694;54.382;9.708;2022-07-05T13:31:44;23.70;68.70
60860;DHT22;46694;54.382;9.708;2022-07-05T13:34:24;23.50;68.60
60860;DHT22;46694;54.382;9.708;2022-07-05T13:37:05;23.20;67.80
60860;DHT22;46694;54.382;9.708;2022-07-05T13:39:45;23.10;68.10
60860;DHT22;46694;54.382;9.708;2022-07-05T13:42:24;23.00;67.50
60860;DHT22;46694;54.382;9.708;2022-07-05T13:45:04;22.80;66.80
60860;DHT22;46694;54.382;9.708;2022-07-05T13:47:44;22.70;66.90
60860;DHT22;46694;54.382;9.708;2022-07-05T13:50:23;22.40;66.70
60860;DHT22;46694;54.382;9.708;2022-07-05T13:53:12;22.30;67.60
60860;DHT22;46694;54.382;9.708;2022-07-05T13:55:52;22.20;67.90
60860;DHT22;46694;54.382;9.708;2022-07-05T13:58:34;22.10;68.60
60860;DHT22;46694;54.382;9.708;2022-07-05T14:01:14;22.10;68.70
60860;DHT22;46694;54.382;9.708;2022-07-05T14:03:58;22.10;69.20
60860;DHT22;46694;54.382;9.708;2022-07-05T14:06:39;22.20;70.50
60860;DHT22;46694;54.382;9.708;2022-07-05T14:09:19;22.40;70.70
60860;DHT22;46694;54.382;9.708;2022-07-05T14:11:59;22.40;70.30
60860;DHT22;46694;54.382;9.708;2022-07-05T14:14:38;22.40;70.90
60860;DHT22;46694;54.382;9.708;2022-07-05T14:17:18;22.30;70.30
60860;DHT22;46694;54.382;9.708;2022-07-05T14:19:57;22.20;70.70
60860;DHT22;46694;54.382;9.708;2022-07-05T14:22:37;22.10;71.80
60860;DHT22;46694;54.382;9.708;2022-07-05T14:25:17;22.20;72.60
60860;DHT22;46694;54.382;9.708;2022-07-05T14:27:56;22.20;72.50
60860;DHT22;46694;54.382;9.708;2022-07-05T14:30:37;22.10;72.80
60860;DHT22;46694;54.382;9.708;2022-07-05T14:33:17;22.10;73.20
60860;DHT22;46694;54.382;9.708;2022-07-05T14:35:57;22.00;74.40
60860;DHT22;46694;54.382;9.708;2022-07-05T14:38:37;22.10;74.40
60860;DHT22;46694;54.382;9.708;2022-07-05T14:41:16;22.30;74.00
60860;DHT22;46694;54.382;9.708;2022-07-05T14:43:56;22.40;73.70
60860;DHT22;46694;54.382;9.708;2022-07-05T14:46:36;22.30;73.70
60860;DHT22;46694;54.382;9.708;2022-07-05T14:49:15;22.30;74.20
60860;DHT22;46694;54.382;9.708;2022-07-05T14:51:55;22.30;74.00
60860;DHT22;46694;54.382;9.708;2022-07-05T14:54:34;22.30;73.30
60860;DHT22;46694;54.382;9.708;2022-07-05T14:57:14;22.20;72.70
60860;DHT22;46694;54.382;9.708;2022-07-05T14:59:54;22.10;72.70
60860;DHT22;46694;54.382;9.708;2022-07-05T15:02:34;22.00;72.80
60860;DHT22;46694;54.382;9.708;2022-07-05T15:05:14;21.90;73.00
60860;DHT22;46694;54.382;9.708;2022-07-05T15:07:53;21.80;73.40
60860;DHT22;46694;54.382;9.708;2022-07-05T15:10:33;21.80;73.70
60860;DHT22;46694;54.382;9.708;2022-07-05T15:13:13;21.80;73.50
60860;DHT22;46694;54.382;9.708;2022-07-05T15:15:53;21.70;73.70
60860;DHT22;46694;54.382;9.708;2022-07-05T15:18:33;21.70;73.90
60860;DHT22;46694;54.382;9.708;2022-07-05T15:21:13;21.60;73.90
60860;DHT22;46694;54.382;9.708;2022-07-05T15:23:52;21.40;74.60
60860;DHT22;46694;54.382;9.708;2022-07-05T15:26:34;21.30;75.40
60860;DHT22;46694;54.382;9.708;2022-07-05T15:29:14;21.40;75.40
60860;DHT22;46694;54.382;9.708;2022-07-05T15:31:55;21.40;75.70
60860;DHT22;46694;54.382;9.708;2022-07-05T15:34:35;21.60;75.40
60860;DHT22;46694;54.382;9.708;2022-07-05T15:37:14;21.40;75.10
60860;DHT22;46694;54.382;9.708;2022-07-05T15:39:54;21.20;75.40
60860;DHT22;46694;54.382;9.708;2022-07-05T15:42:37;21.10;76.00
60860;DHT22;46694;54.382;9.708;2022-07-05T15:45:16;21.00;76.30
60860;DHT22;46694;54.382;9.708;2022-07-05T15:47:56;20.90;77.00
60860;DHT22;46694;54.382;9.708;2022-07-05T15:50:35;20.90;77.60
60860;DHT22;46694;54.382;9.708;2022-07-05T15:53:15;21.10;77.80
60860;DHT22;46694;54.382;9.708;2022-07-05T15:55:55;21.20;77.20
60860;DHT22;46694;54.382;9.708;2022-07-05T15:58:39;21.30;77.00
60860;DHT22;46694;54.382;9.708;2022-07-05T16:01:19;21.40;76.90
60860;DHT22;46694;54.382;9.708;2022-07-05T16:03:58;21.30;76.70
60860;DHT22;46694;54.382;9.708;2022-07-05T16:06:38;21.20;76.90
60860;DHT22;46694;54.382;9.708;2022-07-05T16:09:18;21.20;76.90
60860;DHT22;46694;54.382;9.708;2022-07-05T16:11:57;21.30;77.20
60860;DHT22;46694;54.382;9.708;2022-07-05T16:14:37;21.40;77.00
60860;DHT22;46694;54.382;9.708;2022-07-05T16:17:17;21.40;76.80
60860;DHT22;46694;54.382;9.708;2022-07-05T16:19:57;21.20;76.60
60860;DHT22;46694;54.382;9.708;2022-07-05T16:22:37;21.10;77.10
60860;DHT22;46694;54.382;9.708;2022-07-05T16:25:16;21.10;77.90
60860;DHT22;46694;54.382;9.708;2022-07-05T16:27:56;21.00;77.70
60860;DHT22;46694;54.382;9.708;2022-07-05T16:30:35;20.90;78.20
60860;DHT22;46694;54.382;9.708;2022-07-05T16:33:15;21.00;78.40
60860;DHT22;46694;54.382;9.708;2022-07-05T16:35:55;21.00;78.50
60860;DHT22;46694;54.382;9.708;2022-07-05T16:38:35;20.90;78.10
60860;DHT22;46694;54.382;9.708;2022-07-05T16:41:15;20.80;77.90
60860;DHT22;46694;54.382;9.708;2022-07-05T16:43:56;20.60;78.30
60860;DHT22;46694;54.382;9.708;2022-07-05T16:46:36;20.50;78.90
60860;DHT22;46694;54.382;9.708;2022-07-05T16:49:15;20.50;79.50
60860;DHT22;46694;54.382;9.708;2022-07-05T16:51:55;20.50;79.90
60860;DHT22;46694;54.382;9.708;2022-07-05T16:54:44;20.50;80.20
60860;DHT22;46694;54.382;9.708;2022-07-05T16:57:23;20.50;80.40
60860;DHT22;46694;54.382;9.708;2022-07-05T17:00:04;20.50;80.80
60860;DHT22;46694;54.382;9.708;2022-07-05T17:02:45;20.50;81.40
60860;DHT22;46694;54.382;9.708;2022-07-05T17:05:27;20.40;82.10